Terminal Aerodrome Forecast
Issued by NWS Cleveland, OH

Home | Current Version | Previous Version | Text Only | Print | Product List | Glossary Off
Versions: 1 2 3 4 5 6 7 8 9 10 11 12 13 14 15 16 17 18

000
FTUS41 KCLE 020937 AAA
TAFMFD
TAF AMD
KMFD 020937Z 0210/0306 VRB03KT 5SM BR SCT003 BKN045
      TEMPO 0210/0213 2SM BR BKN003
     FM021400 03006KT P6SM BKN012 BKN250
      TEMPO 0214/0216 SCT025 BKN250
     FM021600 02006KT P6SM SCT045
     FM030100 03003KT P6SM SKC=

USA.gov is the U.S. government's official web portal to all federal, state and local government web resources and services.